Time;durP1;ratioP1;P1;durP2;ratioP2;P2;SDS_P1;SDS_P2;PMS_P1;PMS_P2;Temp;Humidity;BMP_temperature;BMP_pressure;BME280_temperature;BME280_humidity;BME280_pressure;Samples;Min_cycle;Max_cycle;Signal;HPM_P1;HPM_P2
2022/03/13 00:00:12;;;;;;;;;;;8.00;99.90;;;;;;5076752;28;19928;-80
2022/03/13 00:02:40;;;;;;;;;;;8.10;99.90;;;;;;5089252;28;19928;-85
2022/03/13 00:05:08;;;;;;;;;;;8.10;99.90;;;;;;5093563;28;19928;-80
2022/03/13 00:07:37;;;;;;;;;;;8.00;99.90;;;;;;5093674;28;19924;-80
2022/03/13 00:10:03;;;;;;;;;;;8.00;99.90;;;;;;5093219;28;19924;-81
2022/03/13 00:12:32;;;;;;;;;;;8.00;99.90;;;;;;5093419;28;19924;-81
2022/03/13 00:14:59;;;;;;;;;;;8.00;99.90;;;;;;5092720;28;20534;-80
2022/03/13 00:17:27;;;;;;;;;;;7.90;99.90;;;;;;5093435;28;19928;-81
2022/03/13 00:19:55;;;;;;;;;;;7.90;99.90;;;;;;5093402;28;19924;-81
2022/03/13 00:22:20;;;;;;;;;;;7.90;99.90;;;;;;5093379;28;19924;-80
2022/03/13 00:24:46;;;;;;;;;;;7.90;99.90;;;;;;5076225;28;19924;-80
2022/03/13 00:27:12;;;;;;;;;;;7.80;99.90;;;;;;5076389;28;20406;-80
2022/03/13 00:29:39;;;;;;;;;;;7.80;99.90;;;;;;5075866;28;20278;-80
2022/03/13 00:32:05;;;;;;;;;;;7.80;99.90;;;;;;5059921;28;19932;-80
2022/03/13 00:34:31;;;;;;;;;;;7.80;99.90;;;;;;5076485;28;20414;-80
2022/03/13 00:36:56;;;;;;;;;;;7.80;99.90;;;;;;5076019;28;19931;-80
2022/03/13 00:39:22;;;;;;;;;;;7.80;99.90;;;;;;5076149;28;19924;-81
2022/03/13 00:41:47;;;;;;;;;;;7.80;99.90;;;;;;5071864;28;19925;-81
2022/03/13 00:44:13;;;;;;;;;;;7.80;99.90;;;;;;5088942;28;20018;-81
2022/03/13 00:46:39;;;;;;;;;;;7.80;99.90;;;;;;5106558;28;19950;-80
2022/03/13 00:49:04;;;;;;;;;;;7.80;99.90;;;;;;5057123;28;19925;-81
2022/03/13 00:51:30;;;;;;;;;;;7.80;99.90;;;;;;5092451;28;19924;-81
2022/03/13 00:53:56;;;;;;;;;;;7.80;99.90;;;;;;5096182;28;19923;-81
2022/03/13 00:56:21;;;;;;;;;;;7.80;99.90;;;;;;5079470;28;19923;-81
2022/03/13 00:58:47;;;;;;;;;;;7.80;99.90;;;;;;5078818;28;19966;-80
2022/03/13 01:01:12;;;;;;;;;;;7.80;99.90;;;;;;5079377;28;19931;-80
2022/03/13 01:03:38;;;;;;;;;;;7.70;99.90;;;;;;5096367;28;19924;-80
2022/03/13 01:06:04;;;;;;;;;;;7.70;99.90;;;;;;5079123;28;20387;-80
2022/03/13 01:08:30;;;;;;;;;;;7.70;99.90;;;;;;5095872;28;19928;-80
2022/03/13 01:10:56;;;;;;;;;;;7.70;99.90;;;;;;5079080;28;19935;-81
2022/03/13 01:13:22;;;;;;;;;;;7.70;99.90;;;;;;5095857;28;19928;-80
2022/03/13 01:15:48;;;;;;;;;;;7.70;99.90;;;;;;5078733;28;19931;-81
2022/03/13 01:18:14;;;;;;;;;;;7.70;99.90;;;;;;5079135;28;20018;-80
2022/03/13 01:20:40;;;;;;;;;;;7.90;99.90;;;;;;5096049;28;19924;-80
2022/03/13 01:23:07;;;;;;;;;;;7.80;99.90;;;;;;5095532;28;20428;-80
2022/03/13 01:25:33;;;;;;;;;;;7.90;99.90;;;;;;5095995;28;20305;-81
2022/03/13 01:27:58;;;;;;;;;;;7.90;99.90;;;;;;5095780;28;19962;-80
2022/03/13 01:30:24;;;;;;;;;;;7.80;99.90;;;;;;5095255;28;20372;-80
2022/03/13 01:32:53;;;;;;;;;;;7.80;99.90;;;;;;5079003;28;19924;-81
2022/03/13 01:35:19;;;;;;;;;;;7.90;99.90;;;;;;5095638;28;19927;-80
2022/03/13 01:37:45;;;;;;;;;;;8.00;99.90;;;;;;5079028;28;19924;-80
2022/03/13 01:40:11;;;;;;;;;;;8.00;99.90;;;;;;5095740;28;19924;-80
2022/03/13 01:42:40;;;;;;;;;;;8.00;99.90;;;;;;5079045;28;19971;-81
2022/03/13 01:45:07;;;;;;;;;;;8.00;99.90;;;;;;5078928;28;20026;-80
2022/03/13 01:47:33;;;;;;;;;;;8.00;99.90;;;;;;5078738;28;19963;-81
2022/03/13 01:49:58;;;;;;;;;;;8.00;99.90;;;;;;5058007;28;20341;-80
2022/03/13 01:52:28;;;;;;;;;;;8.00;99.90;;;;;;5093842;28;19928;-80
2022/03/13 01:54:55;;;;;;;;;;;8.00;99.90;;;;;;5095452;28;19977;-81
2022/03/13 01:57:21;;;;;;;;;;;8.00;99.90;;;;;;5095733;28;20325;-81
2022/03/13 01:59:51;;;;;;;;;;;8.00;99.90;;;;;;5125671;28;20007;-80
2022/03/13 02:02:18;;;;;;;;;;;8.00;99.90;;;;;;5075872;28;20281;-81
2022/03/13 02:04:43;;;;;;;;;;;8.10;99.90;;;;;;5082267;28;19933;-81
2022/03/13 02:07:09;;;;;;;;;;;8.10;99.90;;;;;;5082137;28;19924;-80
2022/03/13 02:09:34;;;;;;;;;;;8.00;99.90;;;;;;5099124;28;19931;-81
2022/03/13 02:12:01;;;;;;;;;;;8.10;99.90;;;;;;5098908;28;19923;-80
2022/03/13 02:14:27;;;;;;;;;;;8.10;99.90;;;;;;5082297;28;19973;-80
2022/03/13 02:16:53;;;;;;;;;;;8.10;99.90;;;;;;5081935;28;19924;-81
2022/03/13 02:19:19;;;;;;;;;;;8.00;99.90;;;;;;5098747;28;20364;-80
2022/03/13 02:21:48;;;;;;;;;;;8.10;99.90;;;;;;5065665;28;19924;-80
2022/03/13 02:24:19;;;;;;;;;;;8.00;99.90;;;;;;5098489;28;19969;-81
2022/03/13 02:26:55;;;;;;;;;;;8.00;99.90;;;;;;5078698;28;19931;-82
2022/03/13 02:29:20;;;;;;;;;;;8.00;99.90;;;;;;5095470;28;20658;-80
2022/03/13 02:31:46;;;;;;;;;;;8.00;99.90;;;;;;5088180;28;19924;-80
2022/03/13 02:34:13;;;;;;;;;;;8.00;99.90;;;;;;5081520;28;19924;-80
2022/03/13 02:36:42;;;;;;;;;;;8.00;99.90;;;;;;5098805;28;19923;-81
2022/03/13 02:39:09;;;;;;;;;;;8.00;99.90;;;;;;5081127;28;20372;-80
2022/03/13 02:41:34;;;;;;;;;;;8.00;99.90;;;;;;5081930;28;19976;-81
2022/03/13 02:44:00;;;;;;;;;;;8.00;99.90;;;;;;5065199;28;19927;-81
2022/03/13 02:46:45;;;;;;;;;;;8.00;99.90;;;;;;5081916;28;19931;-80
2022/03/13 02:49:11;;;;;;;;;;;7.90;99.90;;;;;;5080766;28;19923;-81
2022/03/13 02:51:36;;;;;;;;;;;7.90;99.90;;;;;;5065156;28;19923;-80
2022/03/13 02:54:02;;;;;;;;;;;7.90;99.90;;;;;;5081634;28;19924;-80
2022/03/13 02:56:28;;;;;;;;;;;7.80;99.90;;;;;;5098494;28;19957;-81
2022/03/13 02:58:53;;;;;;;;;;;7.80;99.90;;;;;;5081509;28;19924;-81
2022/03/13 03:01:19;;;;;;;;;;;7.90;99.90;;;;;;5098198;28;19928;-81
2022/03/13 03:03:45;;;;;;;;;;;7.80;99.90;;;;;;5081309;28;19928;-80
2022/03/13 03:06:12;;;;;;;;;;;7.90;99.90;;;;;;5098265;28;19924;-81
2022/03/13 03:08:38;;;;;;;;;;;7.90;99.90;;;;;;5080094;28;19958;-81
2022/03/13 03:11:03;;;;;;;;;;;7.80;99.90;;;;;;5080051;28;19923;-80
2022/03/13 03:13:29;;;;;;;;;;;7.90;99.90;;;;;;5080398;28;19928;-80
2022/03/13 03:15:54;;;;;;;;;;;7.80;99.90;;;;;;5080251;28;19923;-80
2022/03/13 03:18:20;;;;;;;;;;;7.80;99.90;;;;;;5097890;28;19924;-80
2022/03/13 03:20:45;;;;;;;;;;;7.90;99.90;;;;;;5097913;28;19932;-80
2022/03/13 03:23:11;;;;;;;;;;;7.80;99.90;;;;;;5097617;28;19969;-81
2022/03/13 03:25:38;;;;;;;;;;;7.90;99.90;;;;;;5081123;28;20419;-80
2022/03/13 03:28:04;;;;;;;;;;;7.80;99.90;;;;;;5081077;28;19923;-81
2022/03/13 03:30:30;;;;;;;;;;;7.80;99.90;;;;;;5097468;28;19924;-80
2022/03/13 03:32:56;;;;;;;;;;;7.80;99.90;;;;;;5080461;28;19927;-80
2022/03/13 03:35:23;;;;;;;;;;;7.80;99.90;;;;;;5080346;28;19923;-80
2022/03/13 03:37:49;;;;;;;;;;;7.90;99.90;;;;;;5097665;28;20368;-80
2022/03/13 03:40:15;;;;;;;;;;;7.90;99.90;;;;;;5097407;28;19977;-80
2022/03/13 03:42:41;;;;;;;;;;;8.00;99.90;;;;;;5097444;28;19928;-81
2022/03/13 03:45:07;;;;;;;;;;;8.10;99.90;;;;;;5080576;28;19928;-81
2022/03/13 03:47:33;;;;;;;;;;;8.20;99.90;;;;;;5080421;28;19937;-80
2022/03/13 03:49:59;;;;;;;;;;;8.20;99.90;;;;;;5093693;28;19924;-80
2022/03/13 03:52:24;;;;;;;;;;;8.30;99.90;;;;;;5076928;28;20451;-80
2022/03/13 03:54:51;;;;;;;;;;;8.30;99.90;;;;;;5093981;28;19924;-80
2022/03/13 03:57:17;;;;;;;;;;;8.20;99.90;;;;;;5060331;28;20364;-80
2022/03/13 03:59:43;;;;;;;;;;;8.30;99.90;;;;;;5093861;28;19924;-80
2022/03/13 04:02:09;;;;;;;;;;;8.10;99.90;;;;;;5060204;28;19924;-81
2022/03/13 04:04:34;;;;;;;;;;;8.20;99.90;;;;;;5056641;28;19924;-80
2022/03/13 04:07:00;;;;;;;;;;;8.30;99.90;;;;;;5056783;28;19978;-81
2022/03/13 04:09:25;;;;;;;;;;;8.20;99.90;;;;;;5072915;28;19932;-81
2022/03/13 04:11:52;;;;;;;;;;;8.20;99.90;;;;;;5059693;28;20073;-81
2022/03/13 04:14:20;;;;;;;;;;;8.20;99.90;;;;;;5076498;28;19924;-81
2022/03/13 04:16:46;;;;;;;;;;;8.20;99.90;;;;;;5093614;28;19928;-80
2022/03/13 04:19:11;;;;;;;;;;;8.20;99.90;;;;;;5076578;28;19932;-81
2022/03/13 04:21:40;;;;;;;;;;;8.20;99.90;;;;;;5093516;28;19924;-80
2022/03/13 04:24:06;;;;;;;;;;;8.20;99.90;;;;;;5093275;28;20022;-81
2022/03/13 04:26:31;;;;;;;;;;;8.20;99.90;;;;;;5075682;28;20013;-81
2022/03/13 04:28:57;;;;;;;;;;;8.10;99.90;;;;;;5059698;28;19965;-80
2022/03/13 04:31:24;;;;;;;;;;;8.10;99.90;;;;;;5059297;28;20015;-80
2022/03/13 04:33:49;;;;;;;;;;;8.10;99.90;;;;;;5065943;28;19924;-80
2022/03/13 04:36:21;;;;;;;;;;;8.10;99.90;;;;;;5072632;28;20140;-80
2022/03/13 04:38:47;;;;;;;;;;;8.10;99.90;;;;;;5072988;28;19924;-81
2022/03/13 04:41:12;;;;;;;;;;;8.10;99.90;;;;;;5078099;28;19925;-81
2022/03/13 04:43:38;;;;;;;;;;;8.00;99.90;;;;;;5076254;28;20320;-81
2022/03/13 04:46:04;;;;;;;;;;;7.90;99.90;;;;;;5076003;28;19924;-81
2022/03/13 04:48:32;;;;;;;;;;;8.00;99.90;;;;;;5092882;28;19927;-81
2022/03/13 04:50:59;;;;;;;;;;;8.00;99.90;;;;;;5092652;28;19924;-80
2022/03/13 04:53:25;;;;;;;;;;;8.00;99.90;;;;;;5075593;28;19932;-82
2022/03/13 04:55:50;;;;;;;;;;;8.00;99.90;;;;;;5091607;28;19993;-81
2022/03/13 04:58:18;;;;;;;;;;;7.90;99.90;;;;;;5075609;28;19947;-81
2022/03/13 05:00:47;;;;;;;;;;;7.90;99.90;;;;;;5092950;28;19975;-81
2022/03/13 05:03:13;;;;;;;;;;;7.90;99.90;;;;;;5075792;28;19925;-81
2022/03/13 05:05:40;;;;;;;;;;;7.80;99.90;;;;;;5092762;28;19979;-80
2022/03/13 05:08:08;;;;;;;;;;;7.80;99.90;;;;;;5076043;28;19935;-81
2022/03/13 05:10:37;;;;;;;;;;;7.80;99.90;;;;;;5059071;28;20429;-81
2022/03/13 05:13:11;;;;;;;;;;;7.80;99.90;;;;;;5110292;28;20428;-80
2022/03/13 05:15:37;;;;;;;;;;;7.80;99.90;;;;;;5092636;28;19924;-80
2022/03/13 05:18:03;;;;;;;;;;;7.80;99.90;;;;;;5092408;28;20373;-80
2022/03/13 05:20:29;;;;;;;;;;;7.70;99.90;;;;;;5075610;28;19975;-81
2022/03/13 05:22:55;;;;;;;;;;;7.80;99.90;;;;;;5075691;28;19928;-80
2022/03/13 05:25:23;;;;;;;;;;;7.80;99.90;;;;;;5092176;28;19924;-80
2022/03/13 05:27:50;;;;;;;;;;;7.70;99.90;;;;;;5092588;28;19949;-80
2022/03/13 05:30:16;;;;;;;;;;;7.70;99.90;;;;;;5091482;28;19928;-81
2022/03/13 05:32:42;;;;;;;;;;;7.70;99.90;;;;;;5093057;28;19946;-81
2022/03/13 05:35:07;;;;;;;;;;;7.70;99.90;;;;;;5091519;28;19932;-81
2022/03/13 05:37:33;;;;;;;;;;;7.70;99.90;;;;;;5091965;28;19932;-81
2022/03/13 05:39:58;;;;;;;;;;;7.70;99.90;;;;;;5078910;28;20019;-81
2022/03/13 05:42:25;;;;;;;;;;;7.70;99.90;;;;;;5078569;28;19954;-80
2022/03/13 05:44:54;;;;;;;;;;;7.70;99.90;;;;;;5079684;28;19974;-81
2022/03/13 05:47:21;;;;;;;;;;;7.70;99.90;;;;;;5095832;28;20594;-81
2022/03/13 05:49:47;;;;;;;;;;;7.80;99.90;;;;;;5095863;28;20394;-80
2022/03/13 05:52:16;;;;;;;;;;;7.70;99.90;;;;;;5096459;28;19924;-80
2022/03/13 05:54:45;;;;;;;;;;;7.70;99.90;;;;;;5079897;28;19931;-81
2022/03/13 05:57:11;;;;;;;;;;;7.70;99.90;;;;;;5096205;28;19930;-81
2022/03/13 05:59:39;;;;;;;;;;;7.70;99.90;;;;;;5079191;28;20346;-81
2022/03/13 06:02:05;;;;;;;;;;;7.70;99.90;;;;;;5096128;28;19924;-80
2022/03/13 06:04:36;;;;;;;;;;;7.70;99.90;;;;;;5096018;28;20027;-81
2022/03/13 06:07:02;;;;;;;;;;;7.70;99.90;;;;;;5043278;28;19925;-81
2022/03/13 06:09:27;;;;;;;;;;;7.60;99.90;;;;;;5095378;28;19932;-81
2022/03/13 06:11:53;;;;;;;;;;;7.70;99.90;;;;;;5078880;28;19931;-80
2022/03/13 06:14:20;;;;;;;;;;;7.70;99.90;;;;;;5078621;28;20019;-81
2022/03/13 06:16:45;;;;;;;;;;;7.70;99.90;;;;;;5078716;28;19924;-80
2022/03/13 06:19:11;;;;;;;;;;;7.70;99.90;;;;;;5095599;28;19924;-81
2022/03/13 06:21:39;;;;;;;;;;;7.70;99.90;;;;;;5129790;27;19928;-81
2022/03/13 06:24:04;;;;;;;;;;;7.60;99.90;;;;;;5079126;28;19924;-80
2022/03/13 06:26:31;;;;;;;;;;;7.60;99.90;;;;;;5095549;28;20531;-80
2022/03/13 06:28:56;;;;;;;;;;;7.70;99.90;;;;;;5078456;28;19931;-81
2022/03/13 06:31:22;;;;;;;;;;;7.70;99.90;;;;;;5062055;28;19931;-81
2022/03/13 06:33:48;;;;;;;;;;;7.70;99.90;;;;;;5062070;28;19979;-80
2022/03/13 06:36:14;;;;;;;;;;;7.70;99.90;;;;;;5061902;28;20363;-81
2022/03/13 06:38:39;;;;;;;;;;;7.60;99.90;;;;;;5095278;28;19932;-80
2022/03/13 06:41:05;;;;;;;;;;;7.70;99.90;;;;;;5078486;28;19928;-82
2022/03/13 06:43:31;;;;;;;;;;;7.70;99.90;;;;;;5078164;28;19925;-81
2022/03/13 06:45:57;;;;;;;;;;;7.70;99.90;;;;;;5095257;28;19964;-82
2022/03/13 06:48:22;;;;;;;;;;;7.70;99.90;;;;;;5095018;28;19928;-81
2022/03/13 06:50:48;;;;;;;;;;;7.70;99.90;;;;;;5093601;28;20288;-80
2022/03/13 06:53:14;;;;;;;;;;;7.80;99.90;;;;;;5074924;28;19968;-80
2022/03/13 06:55:40;;;;;;;;;;;7.80;99.90;;;;;;5091655;28;19924;-80
2022/03/13 06:58:06;;;;;;;;;;;7.80;99.90;;;;;;5058147;28;19928;-81
2022/03/13 07:00:31;;;;;;;;;;;7.80;99.90;;;;;;5094507;28;19928;-81
2022/03/13 07:02:57;;;;;;;;;;;7.80;99.90;;;;;;5094110;28;19978;-82
2022/03/13 07:05:24;;;;;;;;;;;7.80;99.90;;;;;;5076708;28;19933;-85
2022/03/13 07:07:49;;;;;;;;;;;7.80;99.90;;;;;;5061526;28;19931;-80
2022/03/13 07:10:15;;;;;;;;;;;7.80;99.90;;;;;;5094306;28;19924;-82
2022/03/13 07:12:44;;;;;;;;;;;7.80;99.90;;;;;;5094296;28;19924;-79
2022/03/13 07:15:12;;;;;;;;;;;7.80;99.90;;;;;;5061106;28;19986;-85
2022/03/13 07:17:38;;;;;;;;;;;7.80;99.90;;;;;;5073387;28;19950;-82
2022/03/13 07:20:05;;;;;;;;;;;7.80;99.90;;;;;;5094573;28;20003;-81
2022/03/13 07:22:31;;;;;;;;;;;7.80;99.90;;;;;;5094357;28;19931;-81
2022/03/13 07:24:57;;;;;;;;;;;7.80;99.90;;;;;;5077474;28;20303;-82
2022/03/13 07:27:22;;;;;;;;;;;7.70;99.90;;;;;;5094325;28;20381;-82
2022/03/13 07:29:50;;;;;;;;;;;7.80;99.90;;;;;;5077168;28;20038;-81
2022/03/13 07:32:15;;;;;;;;;;;7.80;99.90;;;;;;5076571;28;19936;-81
2022/03/13 07:34:41;;;;;;;;;;;7.90;99.90;;;;;;5086987;28;19925;-82
2022/03/13 07:37:10;;;;;;;;;;;7.90;99.90;;;;;;5090124;28;20371;-81
2022/03/13 07:39:36;;;;;;;;;;;7.80;99.90;;;;;;5073732;28;19970;-81
2022/03/13 07:42:02;;;;;;;;;;;7.80;99.90;;;;;;5057258;28;19924;-82
2022/03/13 07:44:27;;;;;;;;;;;7.90;99.90;;;;;;5087863;28;20277;-83
2022/03/13 07:46:53;;;;;;;;;;;7.90;99.90;;;;;;5076771;28;19931;-82
2022/03/13 07:49:18;;;;;;;;;;;7.90;99.90;;;;;;5078263;28;19932;-82
2022/03/13 07:51:44;;;;;;;;;;;7.90;99.90;;;;;;5079909;28;19927;-81
2022/03/13 07:54:11;;;;;;;;;;;7.90;99.90;;;;;;5097293;28;19931;-81
2022/03/13 07:56:37;;;;;;;;;;;7.90;99.90;;;;;;5096802;28;19928;-82
2022/03/13 07:59:03;;;;;;;;;;;7.90;99.90;;;;;;5080332;28;19944;-81
2022/03/13 08:01:28;;;;;;;;;;;7.90;99.90;;;;;;5079656;28;19924;-81
2022/03/13 08:03:54;;;;;;;;;;;7.90;99.90;;;;;;5080037;28;19932;-82
2022/03/13 08:06:19;;;;;;;;;;;8.00;99.90;;;;;;5096910;28;20381;-81
2022/03/13 08:08:45;;;;;;;;;;;8.00;99.90;;;;;;5096785;28;19984;-82
2022/03/13 08:11:11;;;;;;;;;;;8.00;99.90;;;;;;5079530;28;19937;-82
2022/03/13 08:13:36;;;;;;;;;;;8.00;99.90;;;;;;5079426;28;19930;-82
2022/03/13 08:16:02;;;;;;;;;;;8.10;99.90;;;;;;5062648;28;20003;-81
2022/03/13 08:18:29;;;;;;;;;;;8.10;99.90;;;;;;5063367;28;19931;-81
2022/03/13 08:20:55;;;;;;;;;;;8.10;99.90;;;;;;5063332;28;19928;-83
2022/03/13 08:23:22;;;;;;;;;;;8.20;99.90;;;;;;5096585;28;19924;-82
2022/03/13 08:25:47;;;;;;;;;;;8.20;99.90;;;;;;5096288;28;19924;-82
2022/03/13 08:28:13;;;;;;;;;;;8.30;99.90;;;;;;5079192;28;19924;-82
2022/03/13 08:30:38;;;;;;;;;;;8.30;99.90;;;;;;5078796;28;20367;-82
2022/03/13 08:33:05;;;;;;;;;;;8.40;99.90;;;;;;5079685;28;19974;-84
2022/03/13 08:35:31;;;;;;;;;;;8.40;99.90;;;;;;5079665;28;20332;-85
2022/03/13 08:37:57;;;;;;;;;;;8.40;99.90;;;;;;5079728;28;20249;-82
2022/03/13 08:40:27;;;;;;;;;;;8.40;99.90;;;;;;5096627;28;19924;-82
2022/03/13 08:42:56;;;;;;;;;;;8.50;99.90;;;;;;5062622;28;19927;-82
2022/03/13 08:45:22;;;;;;;;;;;8.50;99.90;;;;;;5079315;28;19931;-82
2022/03/13 08:47:47;;;;;;;;;;;8.50;99.90;;;;;;5062366;28;19923;-82
2022/03/13 08:50:15;;;;;;;;;;;8.60;99.90;;;;;;5095738;28;20052;-81
2022/03/13 08:52:41;;;;;;;;;;;8.70;99.90;;;;;;5130255;27;19924;-82
2022/03/13 08:55:13;;;;;;;;;;;8.80;99.90;;;;;;5095903;28;20284;-81
2022/03/13 08:57:41;;;;;;;;;;;8.90;99.90;;;;;;5063557;28;19924;-82
2022/03/13 09:00:08;;;;;;;;;;;9.00;99.90;;;;;;5079354;28;19974;-82
2022/03/13 09:02:34;;;;;;;;;;;9.20;99.90;;;;;;5079115;28;19923;-87
2022/03/13 09:04:59;;;;;;;;;;;9.40;99.90;;;;;;5062557;28;20517;-81
2022/03/13 09:07:25;;;;;;;;;;;9.60;99.90;;;;;;5054805;28;19931;-82
2022/03/13 09:09:50;;;;;;;;;;;9.70;99.90;;;;;;5094514;28;20395;-82
2022/03/13 09:12:17;;;;;;;;;;;9.80;99.90;;;;;;5078105;28;19924;-84
2022/03/13 09:14:42;;;;;;;;;;;9.80;99.90;;;;;;5078238;28;19931;-84
2022/03/13 09:17:08;;;;;;;;;;;10.00;99.90;;;;;;5078487;28;19924;-84
2022/03/13 09:19:34;;;;;;;;;;;10.10;99.90;;;;;;5078979;28;19924;-83
2022/03/13 09:21:59;;;;;;;;;;;10.20;99.90;;;;;;5078629;28;20384;-83
2022/03/13 09:24:25;;;;;;;;;;;10.30;99.90;;;;;;5095628;28;19927;-83
2022/03/13 09:26:50;;;;;;;;;;;10.40;99.90;;;;;;5078781;28;19959;-84
2022/03/13 09:29:16;;;;;;;;;;;10.60;99.90;;;;;;5095293;28;19928;-83
2022/03/13 09:31:41;;;;;;;;;;;10.60;99.90;;;;;;5061931;28;19930;-83
2022/03/13 09:34:07;;;;;;;;;;;10.60;99.90;;;;;;5077839;28;19924;-84
2022/03/13 09:36:37;;;;;;;;;;;10.70;99.90;;;;;;5094747;28;19961;-84
2022/03/13 09:39:07;;;;;;;;;;;10.70;99.90;;;;;;5094612;28;20014;-84
2022/03/13 09:41:33;;;;;;;;;;;10.70;99.90;;;;;;5077754;28;20364;-83
2022/03/13 09:43:58;;;;;;;;;;;10.70;99.90;;;;;;5078351;28;20378;-84
2022/03/13 09:46:24;;;;;;;;;;;10.80;99.90;;;;;;5095347;28;19928;-83
2022/03/13 09:48:51;;;;;;;;;;;10.80;99.90;;;;;;5094923;28;19975;-84
2022/03/13 09:51:16;;;;;;;;;;;10.90;99.90;;;;;;5094845;28;20002;-84
2022/03/13 09:53:42;;;;;;;;;;;11.00;99.90;;;;;;5061647;28;20320;-84
2022/03/13 09:56:08;;;;;;;;;;;11.00;99.90;;;;;;5078547;28;19923;-83
2022/03/13 09:58:34;;;;;;;;;;;11.10;99.90;;;;;;5078233;28;19931;-83
2022/03/13 10:01:00;;;;;;;;;;;11.30;99.90;;;;;;5094672;28;19980;-80
2022/03/13 10:03:25;;;;;;;;;;;11.50;99.90;;;;;;5094805;28;20153;-78
2022/03/13 10:05:53;;;;;;;;;;;11.70;99.90;;;;;;5112063;28;19923;-79
2022/03/13 10:08:20;;;;;;;;;;;11.70;99.90;;;;;;5093924;28;19949;-79
2022/03/13 10:10:49;;;;;;;;;;;11.80;99.90;;;;;;5112187;28;19969;-81
2022/03/13 10:13:15;;;;;;;;;;;11.90;99.90;;;;;;5094489;28;19927;-84
2022/03/13 10:15:42;;;;;;;;;;;12.00;99.90;;;;;;5094607;28;20317;-85
2022/03/13 10:18:15;;;;;;;;;;;12.00;99.90;;;;;;5077873;28;19931;-83
2022/03/13 10:20:41;;;;;;;;;;;12.00;99.90;;;;;;5078100;28;19930;-83
2022/03/13 10:23:10;;;;;;;;;;;11.90;99.90;;;;;;5094620;28;19923;-83
2022/03/13 10:25:38;;;;;;;;;;;12.00;99.90;;;;;;5080361;28;19927;-84
2022/03/13 10:28:15;;;;;;;;;;;12.00;99.90;;;;;;5080777;28;20390;-84
2022/03/13 10:30:42;;;;;;;;;;;12.00;99.90;;;;;;5082430;28;20372;-83
2022/03/13 10:33:08;;;;;;;;;;;12.00;99.90;;;;;;5081293;28;19930;-83
2022/03/13 10:35:37;;;;;;;;;;;12.10;99.90;;;;;;5098540;28;19930;-81
2022/03/13 10:38:13;;;;;;;;;;;12.10;99.90;;;;;;5117549;27;19924;-81
2022/03/13 10:40:39;;;;;;;;;;;12.10;99.90;;;;;;5061759;28;19924;-82
2022/03/13 10:43:06;;;;;;;;;;;12.10;99.90;;;;;;5098327;28;19935;-84
2022/03/13 10:45:35;;;;;;;;;;;12.20;99.90;;;;;;5081649;28;19923;-79
2022/03/13 10:48:18;;;;;;;;;;;12.30;99.90;;;;;;5081111;28;20036;-85
2022/03/13 10:50:44;;;;;;;;;;;12.40;99.90;;;;;;5097847;28;20372;-90
2022/03/13 10:53:12;;;;;;;;;;;12.50;99.90;;;;;;5080972;28;19962;-87
2022/03/13 10:55:38;;;;;;;;;;;12.50;99.90;;;;;;5062020;28;19938;-85
2022/03/13 10:58:04;;;;;;;;;;;12.70;99.90;;;;;;5065315;28;19927;-80
2022/03/13 11:00:29;;;;;;;;;;;12.80;99.90;;;;;;5085700;28;19924;-81
2022/03/13 11:03:14;;;;;;;;;;;13.10;99.90;;;;;;5086138;28;19928;-81
2022/03/13 11:05:40;;;;;;;;;;;13.30;99.90;;;;;;5074803;28;19927;-82
2022/03/13 11:08:09;;;;;;;;;;;13.60;99.90;;;;;;5092812;28;19937;-82
2022/03/13 11:10:36;;;;;;;;;;;13.70;98.90;;;;;;5077913;28;20314;-82
2022/03/13 11:13:03;;;;;;;;;;;13.90;99.90;;;;;;5081036;28;19924;-81
2022/03/13 11:15:29;;;;;;;;;;;14.10;99.90;;;;;;5081336;28;19924;-80
2022/03/13 11:17:55;;;;;;;;;;;14.10;98.70;;;;;;5081199;28;20391;-81
2022/03/13 11:20:22;;;;;;;;;;;14.30;98.60;;;;;;5097693;28;19924;-84
2022/03/13 11:22:48;;;;;;;;;;;14.40;97.70;;;;;;5097740;28;19946;-84
2022/03/13 11:25:13;;;;;;;;;;;14.50;97.60;;;;;;5096879;28;20368;-80
2022/03/13 11:27:40;;;;;;;;;;;14.60;97.70;;;;;;5079939;28;20419;-78
2022/03/13 11:30:08;;;;;;;;;;;14.60;96.90;;;;;;5097438;28;19992;-81
2022/03/13 11:32:42;;;;;;;;;;;14.30;97.70;;;;;;5064865;28;19928;-81
2022/03/13 11:35:11;;;;;;;;;;;14.20;97.80;;;;;;5080416;28;19978;-81
2022/03/13 11:37:37;;;;;;;;;;;14.10;97.80;;;;;;5097937;28;20354;-79
2022/03/13 11:40:04;;;;;;;;;;;14.00;98.00;;;;;;5080638;28;19963;-79
2022/03/13 11:42:47;;;;;;;;;;;13.90;98.30;;;;;;5090679;28;19967;-80
2022/03/13 11:45:33;;;;;;;;;;;13.80;99.30;;;;;;5077392;28;19931;-80
2022/03/13 11:48:04;;;;;;;;;;;13.80;99.10;;;;;;5094135;28;19982;-79
2022/03/13 11:50:49;;;;;;;;;;;14.00;99.20;;;;;;5110646;28;19924;-79
2022/03/13 11:53:15;;;;;;;;;;;14.30;99.00;;;;;;5095054;28;19987;-79
2022/03/13 11:55:59;;;;;;;;;;;14.60;99.00;;;;;;5106167;28;20372;-79
2022/03/13 11:58:43;;;;;;;;;;;14.90;96.60;;;;;;5076882;28;20049;-80
2022/03/13 12:01:11;;;;;;;;;;;15.40;96.40;;;;;;5093572;28;19963;-81
2022/03/13 12:03:38;;;;;;;;;;;15.40;95.80;;;;;;5083128;28;19924;-81
2022/03/13 12:06:05;;;;;;;;;;;15.20;95.80;;;;;;5097184;28;19924;-80
2022/03/13 12:09:03;;;;;;;;;;;15.30;95.60;;;;;;5080164;28;19947;-81
2022/03/13 12:11:39;;;;;;;;;;;15.50;95.80;;;;;;5080217;28;19931;-81
2022/03/13 12:14:08;;;;;;;;;;;15.70;95.30;;;;;;5072856;28;19947;-82
2022/03/13 12:16:34;;;;;;;;;;;16.00;95.60;;;;;;5078716;28;19924;-80
2022/03/13 12:19:00;;;;;;;;;;;15.80;93.90;;;;;;5096740;28;19928;-81
2022/03/13 12:21:26;;;;;;;;;;;15.80;94.70;;;;;;5078903;28;19928;-79
2022/03/13 12:23:58;;;;;;;;;;;15.70;96.00;;;;;;5093903;28;19930;-79
2022/03/13 12:26:30;;;;;;;;;;;15.70;95.30;;;;;;5095242;28;19923;-82
2022/03/13 12:28:57;;;;;;;;;;;15.70;96.50;;;;;;5076309;28;19942;-83
2022/03/13 12:31:23;;;;;;;;;;;15.90;94.70;;;;;;5061421;28;19939;-79
2022/03/13 12:33:50;;;;;;;;;;;15.90;94.60;;;;;;5098002;28;19930;-78
2022/03/13 12:36:16;;;;;;;;;;;15.90;94.60;;;;;;5068515;28;19928;-79
2022/03/13 12:38:47;;;;;;;;;;;15.80;94.50;;;;;;5070300;28;19924;-79
2022/03/13 12:41:13;;;;;;;;;;;16.00;94.20;;;;;;5069523;28;19930;-79
2022/03/13 12:43:46;;;;;;;;;;;16.10;93.70;;;;;;5111414;27;19924;-79
2022/03/13 12:46:13;;;;;;;;;;;16.20;92.80;;;;;;5098286;28;20345;-79
2022/03/13 12:48:39;;;;;;;;;;;16.30;93.60;;;;;;5067279;28;20360;-79
2022/03/13 12:51:04;;;;;;;;;;;16.50;93.10;;;;;;5089792;28;19945;-84
2022/03/13 12:53:31;;;;;;;;;;;16.70;92.90;;;;;;5064891;28;19982;-80
2022/03/13 12:55:57;;;;;;;;;;;16.70;92.80;;;;;;5085786;28;19931;-80
2022/03/13 12:58:41;;;;;;;;;;;16.90;94.30;;;;;;5082399;28;20330;-80
2022/03/13 13:01:20;;;;;;;;;;;17.00;92.50;;;;;;5090149;28;20356;-81
2022/03/13 13:03:52;;;;;;;;;;;17.10;91.70;;;;;;5070007;28;20407;-79
2022/03/13 13:06:31;;;;;;;;;;;17.10;91.30;;;;;;5083207;28;19924;-80
2022/03/13 13:08:57;;;;;;;;;;;16.90;91.20;;;;;;5076968;28;19923;-79
2022/03/13 13:11:29;;;;;;;;;;;16.90;91.10;;;;;;5094116;28;19930;-79
2022/03/13 13:13:56;;;;;;;;;;;16.90;91.00;;;;;;5073275;28;19924;-79
2022/03/13 13:16:22;;;;;;;;;;;16.80;91.20;;;;;;5115698;28;19971;-79
2022/03/13 13:18:47;;;;;;;;;;;16.70;91.40;;;;;;5069414;28;19979;-79
2022/03/13 13:21:13;;;;;;;;;;;16.70;90.40;;;;;;5094187;28;19973;-79
2022/03/13 13:23:38;;;;;;;;;;;16.70;91.50;;;;;;5052029;28;19924;-80
2022/03/13 13:26:04;;;;;;;;;;;16.80;91.30;;;;;;5084473;28;19978;-80
2022/03/13 13:28:29;;;;;;;;;;;16.60;90.90;;;;;;5083983;28;20364;-79
2022/03/13 13:30:55;;;;;;;;;;;16.60;90.60;;;;;;5085475;28;19928;-79
2022/03/13 13:33:25;;;;;;;;;;;16.70;91.30;;;;;;5102556;28;19931;-78
2022/03/13 13:35:51;;;;;;;;;;;16.80;91.10;;;;;;5101128;28;20394;-81
2022/03/13 13:38:16;;;;;;;;;;;17.00;90.50;;;;;;5098304;28;20027;-78
2022/03/13 13:41:00;;;;;;;;;;;16.90;90.00;;;;;;5089505;28;19924;-79
2022/03/13 13:43:29;;;;;;;;;;;17.10;90.10;;;;;;5095647;28;19936;-80
2022/03/13 13:46:03;;;;;;;;;;;17.30;90.10;;;;;;5095763;28;20292;-79
2022/03/13 13:48:29;;;;;;;;;;;17.40;89.30;;;;;;5078449;28;20265;-80
2022/03/13 13:51:14;;;;;;;;;;;17.40;88.40;;;;;;5094932;28;19928;-80
2022/03/13 13:53:48;;;;;;;;;;;17.70;87.50;;;;;;5129052;28;19928;-79
2022/03/13 13:56:14;;;;;;;;;;;18.00;88.70;;;;;;5071195;28;19923;-80
2022/03/13 13:58:40;;;;;;;;;;;18.40;84.90;;;;;;5095971;28;20381;-81
2022/03/13 14:01:26;;;;;;;;;;;18.60;82.20;;;;;;5082576;28;19985;-81
2022/03/13 14:03:52;;;;;;;;;;;18.90;82.20;;;;;;5099683;28;19924;-80
2022/03/13 14:06:18;;;;;;;;;;;19.20;81.60;;;;;;5065721;28;19948;-80
2022/03/13 14:08:45;;;;;;;;;;;19.50;81.10;;;;;;5082665;28;19924;-80
2022/03/13 14:11:11;;;;;;;;;;;19.70;81.80;;;;;;5091432;28;19932;-80
2022/03/13 14:13:36;;;;;;;;;;;19.60;76.50;;;;;;5054798;28;20406;-81
2022/03/13 14:16:02;;;;;;;;;;;19.70;76.90;;;;;;5076282;28;19923;-80
2022/03/13 14:18:28;;;;;;;;;;;19.70;74.50;;;;;;5089305;28;20008;-79
2022/03/13 14:20:53;;;;;;;;;;;19.40;72.70;;;;;;5064086;28;19931;-79
2022/03/13 14:23:19;;;;;;;;;;;19.20;72.30;;;;;;5114609;27;19987;-79
2022/03/13 14:25:45;;;;;;;;;;;19.50;74.20;;;;;;5062055;28;20304;-79